createdAt,value
2022-09-28T00:00:31.949Z,9.42
2022-09-28T00:02:58.605Z,9.45
2022-09-28T00:05:27.044Z,9.29
2022-09-28T00:07:54.226Z,9.09
2022-09-28T00:10:23.735Z,9.03
2022-09-28T00:12:51.023Z,9.02
2022-09-28T00:15:18.131Z,9.05
2022-09-28T00:17:45.046Z,8.97
2022-09-28T00:20:12.160Z,8.89
2022-09-28T00:22:38.941Z,8.76
2022-09-28T00:25:06.619Z,8.74
2022-09-28T00:27:33.195Z,8.67
2022-09-28T00:30:00.209Z,8.65
2022-09-28T00:32:27.994Z,8.64
2022-09-28T00:34:55.095Z,8.59
2022-09-28T00:37:21.885Z,8.48
2022-09-28T00:39:48.803Z,8.46
2022-09-28T00:42:15.391Z,8.35
2022-09-28T00:44:43.782Z,8.43
2022-09-28T00:47:10.601Z,8.44
2022-09-28T00:49:37.705Z,8.38
2022-09-28T00:52:06.404Z,8.30
2022-09-28T00:54:33.791Z,8.22
2022-09-28T00:57:01.252Z,8.22
2022-09-28T00:59:28.033Z,8.31
2022-09-28T01:01:54.750Z,8.40
2022-09-28T01:04:23.544Z,8.39
2022-09-28T01:06:52.877Z,8.43
2022-09-28T01:09:20.152Z,8.44
2022-09-28T01:11:46.983Z,8.47
2022-09-28T01:14:15.559Z,8.43
2022-09-28T01:17:00.624Z,8.44
2022-09-28T01:19:36.256Z,8.48
2022-09-28T01:22:20.543Z,8.50
2022-09-28T01:24:48.590Z,8.55
2022-09-28T01:27:39.547Z,8.57
2022-09-28T01:30:11.695Z,8.59
2022-09-28T01:32:41.490Z,8.65
2022-09-28T01:35:17.266Z,8.59
2022-09-28T01:37:52.236Z,8.49
2022-09-28T01:40:20.981Z,8.36
2022-09-28T01:42:50.395Z,8.33
2022-09-28T01:45:20.643Z,8.39
2022-09-28T01:47:49.945Z,8.37
2022-09-28T01:50:19.736Z,8.33
2022-09-28T01:52:49.139Z,8.29
2022-09-28T01:55:23.494Z,8.31
2022-09-28T01:58:13.768Z,8.36
2022-09-28T02:00:43.304Z,8.16
2022-09-28T02:03:13.782Z,8.12
2022-09-28T02:05:53.327Z,8.18
2022-09-28T02:08:40.150Z,8.22
2022-09-28T02:11:09.850Z,8.16
2022-09-28T02:13:42.737Z,8.07
2022-09-28T02:16:16.371Z,8.08
2022-09-28T02:18:43.138Z,8.12
2022-09-28T02:21:16.212Z,8.03
2022-09-28T02:23:49.982Z,7.96
2022-09-28T02:26:20.731Z,7.98
2022-09-28T02:28:48.762Z,7.97
2022-09-28T02:31:15.509Z,7.98
2022-09-28T02:33:43.961Z,8.07
2022-09-28T02:36:11.372Z,7.98
2022-09-28T02:38:38.742Z,8.04
2022-09-28T02:41:11.738Z,7.91
2022-09-28T02:43:41.320Z,7.82
2022-09-28T02:46:15.779Z,7.89
2022-09-28T02:49:20.194Z,7.78
2022-09-28T02:52:03.113Z,7.73
2022-09-28T02:54:29.693Z,7.68
2022-09-28T02:56:56.538Z,7.66
2022-09-28T02:59:23.073Z,7.64
2022-09-28T03:02:12.936Z,7.77
2022-09-28T03:04:39.704Z,8.29
2022-09-28T03:07:26.899Z,8.67
2022-09-28T03:10:00.247Z,9.02
2022-09-28T03:12:29.573Z,8.96
2022-09-28T03:15:07.224Z,8.72
2022-09-28T03:17:34.008Z,8.52
2022-09-28T03:20:00.711Z,8.43
2022-09-28T03:22:27.316Z,8.43
2022-09-28T03:24:53.887Z,8.43
2022-09-28T03:27:20.859Z,8.43
2022-09-28T03:29:47.466Z,8.34
2022-09-28T03:32:14.137Z,8.20
2022-09-28T03:34:40.990Z,8.17
2022-09-28T03:37:07.680Z,8.17
2022-09-28T03:39:35.020Z,8.67
2022-09-28T03:42:01.708Z,8.92
2022-09-28T03:44:30.648Z,8.89
2022-09-28T03:46:57.317Z,9.27
2022-09-28T03:49:23.982Z,9.43
2022-09-28T03:51:50.593Z,9.55
2022-09-28T03:54:17.189Z,9.59
2022-09-28T03:56:43.900Z,9.58
2022-09-28T03:59:10.916Z,9.35
2022-09-28T04:01:37.783Z,9.46
2022-09-28T04:04:04.982Z,9.25
2022-09-28T04:06:31.721Z,8.93
2022-09-28T04:08:58.668Z,8.78
2022-09-28T04:11:25.621Z,8.72
2022-09-28T04:13:52.294Z,8.77
2022-09-28T04:16:19.726Z,8.65
2022-09-28T04:19:04.676Z,8.55
2022-09-28T04:21:45.480Z,8.53
2022-09-28T04:24:14.615Z,8.52
2022-09-28T04:26:41.337Z,8.44
2022-09-28T04:29:16.688Z,8.37
2022-09-28T04:31:55.361Z,8.24
2022-09-28T04:34:43.167Z,8.19
2022-09-28T04:37:11.228Z,8.16
2022-09-28T04:39:39.843Z,8.15
2022-09-28T04:42:09.757Z,8.19
2022-09-28T04:44:38.042Z,8.26
2022-09-28T04:47:08.552Z,8.38
2022-09-28T04:49:53.995Z,8.46
2022-09-28T04:52:27.350Z,8.47
2022-09-28T04:54:58.120Z,8.49
2022-09-28T04:57:25.829Z,8.60
2022-09-28T05:00:00.151Z,8.76
2022-09-28T05:02:39.688Z,8.91
2022-09-28T05:05:26.544Z,8.95
2022-09-28T05:08:26.358Z,9.06
2022-09-28T05:11:00.157Z,9.26
2022-09-28T05:13:27.578Z,9.43
2022-09-28T05:15:58.852Z,9.54
2022-09-28T05:18:28.089Z,9.66
2022-09-28T05:21:02.064Z,9.71
2022-09-28T05:23:28.861Z,9.76
2022-09-28T05:25:56.942Z,9.82
2022-09-28T05:28:27.280Z,9.87
2022-09-28T05:31:12.431Z,9.93
2022-09-28T05:33:59.319Z,10.04
2022-09-28T05:36:27.504Z,10.17
2022-09-28T05:38:54.256Z,10.25
2022-09-28T05:41:20.929Z,10.27
2022-09-28T05:43:47.652Z,10.22
2022-09-28T05:46:14.743Z,10.28
2022-09-28T05:48:41.700Z,10.31
2022-09-28T05:51:10.123Z,10.48
2022-09-28T05:53:36.945Z,10.55
2022-09-28T05:56:04.515Z,10.66
2022-09-28T05:58:33.126Z,10.70
2022-09-28T06:01:00.045Z,10.81
2022-09-28T06:03:27.183Z,10.96
2022-09-28T06:05:54.103Z,11.10
2022-09-28T06:08:21.222Z,11.20
2022-09-28T06:10:58.999Z,11.39
2022-09-28T06:13:25.680Z,11.60
2022-09-28T06:15:52.426Z,11.87
2022-09-28T06:18:18.987Z,12.09
2022-09-28T06:21:05.914Z,12.23
2022-09-28T06:23:42.022Z,12.39
2022-09-28T06:26:10.264Z,12.56
2022-09-28T06:28:37.526Z,12.68
2022-09-28T06:31:05.747Z,12.96
2022-09-28T06:33:42.154Z,13.24
2022-09-28T06:36:10.034Z,13.45
2022-09-28T06:38:38.263Z,13.46
2022-09-28T06:41:05.504Z,13.49
2022-09-28T06:43:34.562Z,13.77
2022-09-28T06:46:14.320Z,14.04
2022-09-28T06:48:50.204Z,14.42
2022-09-28T06:51:39.437Z,14.59
2022-09-28T06:54:30.870Z,14.85
2022-09-28T06:57:02.412Z,15.09
2022-09-28T06:59:30.024Z,15.46
2022-09-28T07:01:58.681Z,15.46
2022-09-28T07:04:44.075Z,15.39
2022-09-28T07:07:29.674Z,15.30
2022-09-28T07:10:32.013Z,15.56
2022-09-28T07:13:04.985Z,15.80
2022-09-28T07:15:41.818Z,16.06
2022-09-28T07:18:12.021Z,16.35
2022-09-28T07:20:52.883Z,16.66
2022-09-28T07:23:21.415Z,17.21
2022-09-28T07:26:08.913Z,17.57
2022-09-28T07:29:05.464Z,18.19
2022-09-28T07:31:58.639Z,18.60
2022-09-28T07:35:08.080Z,18.75
2022-09-28T07:37:45.423Z,18.49
2022-09-28T07:40:31.332Z,17.82
2022-09-28T07:43:05.201Z,18.06
2022-09-28T07:45:35.919Z,18.58
2022-09-28T07:48:03.192Z,18.27
2022-09-28T07:50:56.653Z,18.89
2022-09-28T07:53:31.923Z,19.09
2022-09-28T07:56:25.884Z,19.40
2022-09-28T07:59:27.952Z,19.16
2022-09-28T08:02:13.909Z,19.26
2022-09-28T08:04:42.258Z,19.25
2022-09-28T08:07:11.237Z,19.60
2022-09-28T08:09:38.302Z,19.86
2022-09-28T08:12:18.378Z,19.77
2022-09-28T08:14:57.131Z,19.57
2022-09-28T08:17:39.207Z,19.75
2022-09-28T08:20:27.348Z,19.97
2022-09-28T08:22:54.425Z,19.83
2022-09-28T08:25:21.289Z,19.93
2022-09-28T08:27:49.724Z,20.11
2022-09-28T08:30:17.031Z,20.20
2022-09-28T08:32:53.023Z,20.11
2022-09-28T08:35:39.277Z,19.57
2022-09-28T08:38:13.730Z,19.72
2022-09-28T08:41:18.902Z,20.35
2022-09-28T08:44:09.102Z,20.84
2022-09-28T08:47:33.065Z,21.13
2022-09-28T08:50:27.151Z,21.53
2022-09-28T08:53:12.785Z,21.46
2022-09-28T08:56:01.796Z,21.20
2022-09-28T08:58:36.673Z,21.00
2022-09-28T09:01:07.920Z,20.97
2022-09-28T09:03:41.853Z,21.06
2022-09-28T09:06:52.068Z,20.74
2022-09-28T09:10:01.987Z,20.59
2022-09-28T09:12:46.143Z,20.46
2022-09-28T09:15:25.605Z,20.68
2022-09-28T09:18:20.041Z,20.78
2022-09-28T09:21:14.527Z,20.92
2022-09-28T09:24:08.538Z,20.80
2022-09-28T09:26:39.384Z,20.73
2022-09-28T09:29:56.251Z,20.74
2022-09-28T09:32:29.237Z,20.43
2022-09-28T09:35:18.896Z,20.43
2022-09-28T09:38:33.177Z,20.10
2022-09-28T09:41:05.668Z,19.98
2022-09-28T09:43:59.851Z,20.07
2022-09-28T09:46:58.870Z,20.27
2022-09-28T09:49:33.844Z,20.58
2022-09-28T09:52:12.851Z,20.76
2022-09-28T09:54:48.338Z,20.98
2022-09-28T09:57:42.553Z,21.19
2022-09-28T10:00:29.326Z,21.25
2022-09-28T10:03:18.468Z,21.64
2022-09-28T10:05:50.459Z,21.88
2022-09-28T10:08:22.085Z,21.80
2022-09-28T10:10:53.365Z,21.92
2022-09-28T10:13:21.219Z,22.04
2022-09-28T10:15:51.542Z,22.11
2022-09-28T10:18:44.847Z,22.09
2022-09-28T10:21:30.770Z,22.37
2022-09-28T10:24:02.806Z,22.65
2022-09-28T10:26:37.559Z,22.80
2022-09-28T10:29:20.139Z,22.88
2022-09-28T10:31:49.093Z,22.97
2022-09-28T10:34:30.004Z,23.23
2022-09-28T10:37:10.448Z,23.50
2022-09-28T10:40:30.555Z,23.48
2022-09-28T10:43:15.879Z,23.53
2022-09-28T10:45:45.048Z,23.79
2022-09-28T10:48:22.476Z,23.88
2022-09-28T10:51:05.245Z,23.83
2022-09-28T10:53:37.240Z,24.15
2022-09-28T10:56:23.129Z,24.45
2022-09-28T10:59:01.817Z,24.40
2022-09-28T11:01:44.475Z,25.09
2022-09-28T11:04:21.386Z,24.89
2022-09-28T11:06:48.467Z,25.11
2022-09-28T11:09:40.415Z,25.06
2022-09-28T11:12:15.569Z,25.03
2022-09-28T11:14:44.362Z,25.61
2022-09-28T11:17:32.534Z,25.83
2022-09-28T11:20:27.896Z,26.09
2022-09-28T11:22:58.891Z,25.69
2022-09-28T11:25:31.429Z,25.91
2022-09-28T11:28:04.671Z,26.37
2022-09-28T11:30:34.375Z,26.84
2022-09-28T11:33:35.050Z,25.69
2022-09-28T11:36:58.403Z,25.46
2022-09-28T11:39:40.677Z,25.38
2022-09-28T11:42:24.934Z,25.38
2022-09-28T11:45:02.546Z,25.56
2022-09-28T11:47:35.594Z,25.45
2022-09-28T11:50:14.465Z,25.59
2022-09-28T11:52:46.353Z,25.62
2022-09-28T11:55:24.692Z,25.99
2022-09-28T11:58:18.136Z,26.47
2022-09-28T12:01:09.581Z,26.68
2022-09-28T12:04:22.603Z,27.34
2022-09-28T12:07:23.381Z,27.31
2022-09-28T12:09:57.008Z,27.41
2022-09-28T12:12:32.857Z,27.59
2022-09-28T12:15:16.934Z,27.40
2022-09-28T12:17:49.532Z,27.43
2022-09-28T12:20:38.561Z,27.29
2022-09-28T12:23:11.957Z,27.04
2022-09-28T12:25:46.854Z,26.72
2022-09-28T12:28:39.883Z,26.36
2022-09-28T12:31:15.664Z,26.49
2022-09-28T12:33:48.170Z,26.51
2022-09-28T12:36:17.914Z,27.00
2022-09-28T12:39:17.516Z,27.40
2022-09-28T12:42:22.375Z,27.43
2022-09-28T12:45:07.027Z,27.67
2022-09-28T12:48:01.918Z,27.44
2022-09-28T12:51:03.698Z,27.20
2022-09-28T12:53:55.108Z,27.31
2022-09-28T12:56:37.141Z,27.24
2022-09-28T12:59:06.888Z,27.04
2022-09-28T13:01:40.133Z,26.99
2022-09-28T13:04:37.888Z,26.71
2022-09-28T13:07:10.914Z,26.41
2022-09-28T13:09:55.603Z,26.12
2022-09-28T13:12:37.971Z,25.93
2022-09-28T13:15:08.637Z,25.45
2022-09-28T13:17:53.618Z,25.47
2022-09-28T13:20:52.725Z,25.30
2022-09-28T13:23:35.257Z,25.07
2022-09-28T13:26:09.898Z,24.96
2022-09-28T13:28:38.088Z,24.91
2022-09-28T13:31:06.069Z,24.78
2022-09-28T13:33:36.971Z,24.64
2022-09-28T13:36:23.841Z,24.65
2022-09-28T13:38:52.058Z,24.69
2022-09-28T13:41:41.375Z,24.65
2022-09-28T13:44:20.288Z,24.45
2022-09-28T13:46:59.596Z,24.39
2022-09-28T13:49:29.233Z,24.48
2022-09-28T13:51:55.892Z,24.56
2022-09-28T13:54:30.538Z,24.69
2022-09-28T13:57:12.085Z,24.66
2022-09-28T14:00:13.143Z,24.65
2022-09-28T14:02:48.289Z,24.59
2022-09-28T14:05:27.085Z,24.53
2022-09-28T14:08:09.384Z,24.50
2022-09-28T14:10:49.427Z,24.58
2022-09-28T14:13:41.750Z,24.57
2022-09-28T14:16:17.699Z,24.81
2022-09-28T14:19:03.141Z,25.30
2022-09-28T14:21:32.705Z,25.50
2022-09-28T14:24:17.611Z,25.67
2022-09-28T14:27:25.807Z,25.76
2022-09-28T14:30:16.251Z,25.82
2022-09-28T14:32:53.138Z,25.85
2022-09-28T14:35:27.253Z,25.61
2022-09-28T14:38:19.274Z,25.49
2022-09-28T14:41:22.570Z,25.33
2022-09-28T14:43:49.557Z,25.12
2022-09-28T14:46:19.348Z,25.15
2022-09-28T14:48:55.151Z,25.20
2022-09-28T14:51:24.815Z,25.74
2022-09-28T14:53:53.133Z,26.98
2022-09-28T14:56:20.915Z,27.89
2022-09-28T14:58:54.838Z,27.96
2022-09-28T15:01:24.878Z,27.59
2022-09-28T15:03:56.616Z,27.40
2022-09-28T15:06:25.294Z,27.04
2022-09-28T15:08:52.138Z,26.80
2022-09-28T15:11:23.764Z,26.63
2022-09-28T15:14:02.570Z,27.12
2022-09-28T15:16:31.032Z,28.27
2022-09-28T15:19:51.804Z,29.74
2022-09-28T15:22:20.252Z,30.94
2022-09-28T15:25:02.008Z,31.67
2022-09-28T15:27:37.743Z,32.21
2022-09-28T15:30:27.363Z,32.58
2022-09-28T15:32:56.876Z,32.51
2022-09-28T15:35:28.145Z,32.23
2022-09-28T15:37:55.761Z,31.69
2022-09-28T15:40:34.996Z,31.06
2022-09-28T15:43:02.545Z,30.22
2022-09-28T15:45:40.129Z,29.51
2022-09-28T15:48:51.987Z,28.67
2022-09-28T15:51:21.517Z,27.80
2022-09-28T15:54:04.720Z,27.07
2022-09-28T15:56:31.812Z,26.38
2022-09-28T15:59:10.086Z,25.69
2022-09-28T16:01:39.802Z,25.21
2022-09-28T16:04:35.419Z,24.70
2022-09-28T16:07:11.988Z,24.22
2022-09-28T16:10:04.806Z,23.70
2022-09-28T16:12:37.441Z,23.24
2022-09-28T16:15:21.690Z,22.78
2022-09-28T16:17:52.937Z,22.30
2022-09-28T16:20:23.256Z,21.86
2022-09-28T16:22:50.655Z,21.37
2022-09-28T16:25:24.746Z,21.13
2022-09-28T16:27:53.792Z,20.91
2022-09-28T16:30:24.723Z,20.60
2022-09-28T16:32:53.142Z,20.41
2022-09-28T16:35:25.767Z,20.13
2022-09-28T16:38:16.239Z,19.98
2022-09-28T16:40:57.937Z,19.74
2022-09-28T16:43:30.292Z,19.59
2022-09-28T16:46:00.979Z,19.52
2022-09-28T16:48:30.365Z,19.40
2022-09-28T16:50:57.885Z,19.34
2022-09-28T16:53:45.007Z,19.26
2022-09-28T16:56:12.826Z,19.16
2022-09-28T16:58:39.751Z,19.04
2022-09-28T17:01:09.331Z,18.99
2022-09-28T17:03:36.191Z,18.90
2022-09-28T17:06:06.195Z,18.84
2022-09-28T17:08:35.595Z,18.84
2022-09-28T17:11:15.525Z,18.81
2022-09-28T17:13:45.899Z,18.72
2022-09-28T17:16:15.536Z,18.61
2022-09-28T17:18:42.533Z,18.53
2022-09-28T17:21:15.825Z,18.46
2022-09-28T17:23:44.242Z,18.44
2022-09-28T17:26:31.897Z,18.37
2022-09-28T17:28:59.484Z,18.29
2022-09-28T17:31:26.554Z,18.19
2022-09-28T17:33:54.649Z,18.07
2022-09-28T17:36:24.624Z,18.04
2022-09-28T17:38:52.469Z,17.86
2022-09-28T17:41:21.071Z,17.75
2022-09-28T17:43:49.643Z,17.77
2022-09-28T17:46:34.771Z,17.77
2022-09-28T17:49:04.503Z,17.63
2022-09-28T17:51:37.802Z,17.65
2022-09-28T17:54:07.004Z,17.51
2022-09-28T17:56:35.865Z,17.59
2022-09-28T17:59:05.839Z,16.92
2022-09-28T18:01:38.843Z,17.58
2022-09-28T18:04:08.691Z,17.54
2022-09-28T18:06:37.546Z,17.34
2022-09-28T18:09:05.643Z,17.45
2022-09-28T18:11:33.568Z,17.34
2022-09-28T18:14:00.733Z,17.39
2022-09-28T18:16:28.897Z,17.53
2022-09-28T18:18:56.087Z,17.48
2022-09-28T18:21:23.132Z,17.51
2022-09-28T18:23:49.994Z,17.43
2022-09-28T18:26:20.918Z,17.52
2022-09-28T18:28:47.653Z,17.53
2022-09-28T18:31:15.664Z,17.51
2022-09-28T18:33:52.866Z,17.61
2022-09-28T18:36:31.348Z,17.53
2022-09-28T18:39:01.003Z,17.62
2022-09-28T18:41:29.471Z,17.64
2022-09-28T18:44:02.518Z,17.55
2022-09-28T18:46:36.376Z,17.61
2022-09-28T18:49:06.400Z,17.62
2022-09-28T18:51:33.204Z,17.63
2022-09-28T18:54:01.072Z,17.62
2022-09-28T18:56:27.926Z,17.60
2022-09-28T18:58:54.856Z,17.43
2022-09-28T19:01:31.133Z,17.45
2022-09-28T19:04:00.625Z,17.51
2022-09-28T19:06:28.372Z,17.41
2022-09-28T19:08:56.252Z,17.49
2022-09-28T19:11:23.663Z,17.45
2022-09-28T19:13:51.232Z,17.51
2022-09-28T19:16:21.095Z,17.40
2022-09-28T19:18:48.577Z,17.23
2022-09-28T19:21:16.773Z,17.30
2022-09-28T19:23:48.917Z,17.31
2022-09-28T19:26:20.421Z,17.33
2022-09-28T19:28:47.681Z,17.32
2022-09-28T19:31:14.757Z,17.26
2022-09-28T19:33:41.873Z,17.22
2022-09-28T19:36:11.381Z,17.29
2022-09-28T19:38:39.469Z,17.29
2022-09-28T19:41:37.795Z,17.28
2022-09-28T19:44:17.058Z,17.25
2022-09-28T19:46:44.480Z,17.19
2022-09-28T19:49:13.431Z,17.15
2022-09-28T19:52:01.709Z,17.16
2022-09-28T19:54:35.529Z,17.17
2022-09-28T19:57:08.669Z,17.11
2022-09-28T19:59:39.287Z,17.08
2022-09-28T20:02:07.792Z,17.14
2022-09-28T20:04:34.619Z,17.09
2022-09-28T20:07:01.952Z,17.09
2022-09-28T20:09:29.579Z,17.10
2022-09-28T20:11:57.087Z,16.99
2022-09-28T20:14:26.433Z,16.90
2022-09-28T20:16:57.334Z,16.91
2022-09-28T20:19:24.512Z,16.74
2022-09-28T20:21:51.308Z,16.70
2022-09-28T20:24:18.619Z,16.58
2022-09-28T20:26:48.377Z,16.50
2022-09-28T20:29:15.516Z,16.44
2022-09-28T20:31:43.010Z,16.37
2022-09-28T20:34:09.761Z,16.15
2022-09-28T20:36:36.581Z,16.16
2022-09-28T20:39:05.181Z,16.11
2022-09-28T20:41:36.773Z,16.00
2022-09-28T20:44:06.324Z,15.93
2022-09-28T20:46:37.211Z,15.96
2022-09-28T20:49:05.237Z,15.89
2022-09-28T20:51:32.421Z,15.84
2022-09-28T20:53:59.862Z,15.79
2022-09-28T20:56:38.918Z,15.67
2022-09-28T20:59:11.958Z,15.58
2022-09-28T21:01:38.897Z,15.48
2022-09-28T21:04:07.421Z,15.39
2022-09-28T21:06:36.733Z,15.30
2022-09-28T21:09:04.950Z,15.29
2022-09-28T21:11:33.163Z,15.26
2022-09-28T21:14:02.436Z,15.20
2022-09-28T21:16:32.124Z,15.18
2022-09-28T21:18:59.187Z,15.21
2022-09-28T21:21:26.638Z,15.12
2022-09-28T21:23:57.209Z,15.09
2022-09-28T21:26:26.892Z,14.91
2022-09-28T21:28:54.458Z,14.93
2022-09-28T21:31:27.509Z,14.87
2022-09-28T21:33:55.611Z,14.83
2022-09-28T21:36:22.454Z,14.70
2022-09-28T21:38:59.466Z,14.74
2022-09-28T21:41:26.729Z,14.80
2022-09-28T21:43:53.722Z,14.86
2022-09-28T21:46:20.884Z,14.96
2022-09-28T21:48:52.803Z,14.97
2022-09-28T21:51:19.919Z,15.01
2022-09-28T21:53:48.587Z,14.99
2022-09-28T21:56:15.336Z,14.99
2022-09-28T21:58:42.156Z,15.00
2022-09-28T22:01:21.237Z,14.91
2022-09-28T22:03:55.203Z,14.78
2022-09-28T22:06:24.267Z,14.70
2022-09-28T22:08:51.506Z,14.69
2022-09-28T22:11:22.419Z,14.62
2022-09-28T22:13:52.013Z,14.61
2022-09-28T22:16:22.892Z,14.47
2022-09-28T22:18:50.324Z,14.43
2022-09-28T22:21:23.171Z,14.30
2022-09-28T22:23:51.101Z,14.08
2022-09-28T22:26:22.712Z,14.18
2022-09-28T22:29:00.803Z,14.14
2022-09-28T22:31:30.785Z,14.15
2022-09-28T22:33:58.212Z,14.12
2022-09-28T22:36:25.981Z,14.08
2022-09-28T22:38:54.616Z,14.05
2022-09-28T22:41:22.034Z,13.94
2022-09-28T22:43:51.269Z,13.95
2022-09-28T22:46:22.493Z,13.99
2022-09-28T22:48:52.905Z,13.94
2022-09-28T22:51:20.930Z,13.95
2022-09-28T22:53:47.928Z,14.00
2022-09-28T22:56:18.672Z,13.95
2022-09-28T22:58:57.473Z,13.98
2022-09-28T23:01:27.066Z,13.91
2022-09-28T23:04:02.618Z,13.91
2022-09-28T23:06:30.891Z,13.86
2022-09-28T23:08:57.910Z,13.80
2022-09-28T23:11:24.901Z,13.79
2022-09-28T23:13:53.486Z,13.76
2022-09-28T23:16:20.625Z,13.75
2022-09-28T23:18:49.340Z,13.76
2022-09-28T23:21:19.165Z,13.75
2022-09-28T23:23:51.253Z,13.75
2022-09-28T23:26:21.789Z,13.70
2022-09-28T23:28:48.621Z,13.72
2022-09-28T23:31:18.443Z,13.58
2022-09-28T23:33:45.550Z,13.65
2022-09-28T23:36:12.922Z,13.62
2022-09-28T23:38:39.927Z,13.67
2022-09-28T23:41:07.063Z,13.68
2022-09-28T23:43:34.499Z,13.74
2022-09-28T23:46:01.629Z,13.78
2022-09-28T23:48:28.443Z,13.88
2022-09-28T23:50:55.409Z,14.05
2022-09-28T23:53:22.223Z,14.09
2022-09-28T23:55:58.623Z,14.15
2022-09-28T23:58:25.783Z,14.31
